Time;durP1;ratioP1;P1;durP2;ratioP2;P2;SDS_P1;SDS_P2;PMS_P1;PMS_P2;Temp;Humidity;BMP_temperature;BMP_pressure;BME280_temperature;BME280_humidity;BME280_pressure;Samples;Min_cycle;Max_cycle;Signal;HPM_P1;HPM_P2
2021/03/29 00:00:18;;;;;;;5.13;3.83;;;9.20;99.90;;;;;;4989711;28;20450;-67
2021/03/29 00:02:43;;;;;;;7.10;4.40;;;9.30;99.90;;;;;;4991280;28;20521;-67
2021/03/29 00:05:10;;;;;;;4.83;4.30;;;9.30;99.90;;;;;;4972580;28;20552;-67
2021/03/29 00:07:37;;;;;;;4.73;3.90;;;9.30;99.90;;;;;;4987528;28;20208;-67
2021/03/29 00:10:08;;;;;;;4.03;3.50;;;9.30;99.90;;;;;;4964046;28;20461;-67
2021/03/29 00:12:40;;;;;;;4.83;3.80;;;9.40;99.90;;;;;;4978254;28;20431;-67
2021/03/29 00:15:07;;;;;;;6.23;3.20;;;9.50;99.90;;;;;;4975232;28;20440;-67
2021/03/29 00:17:35;;;;;;;4.53;4.13;;;9.50;99.90;;;;;;4980748;28;20434;-67
2021/03/29 00:20:10;;;;;;;9.33;4.13;;;9.50;99.90;;;;;;4988989;28;21103;-67
2021/03/29 00:22:36;;;;;;;10.10;3.47;;;9.60;99.90;;;;;;4988609;28;20435;-67
2021/03/29 00:25:03;;;;;;;6.40;3.93;;;9.40;99.90;;;;;;4990947;28;20442;-67
2021/03/29 00:27:28;;;;;;;10.27;4.30;;;9.40;99.90;;;;;;4972928;28;20621;-67
2021/03/29 00:29:54;;;;;;;6.20;3.90;;;9.40;99.90;;;;;;4982963;28;20534;-67
2021/03/29 00:32:19;;;;;;;4.17;3.43;;;9.40;99.90;;;;;;4985584;28;20183;-67
2021/03/29 00:34:46;;;;;;;4.87;3.20;;;9.40;99.90;;;;;;4975427;28;20179;-67
2021/03/29 00:37:12;;;;;;;5.43;4.23;;;9.40;99.90;;;;;;4990717;28;20530;-67
2021/03/29 00:39:38;;;;;;;4.53;3.63;;;9.40;99.90;;;;;;4981681;28;20538;-67
2021/03/29 00:42:05;;;;;;;5.00;3.10;;;9.50;99.70;;;;;;4991394;28;20441;-67
2021/03/29 00:44:32;;;;;;;5.63;3.43;;;9.40;99.90;;;;;;4993759;28;20462;-67
2021/03/29 00:46:58;;;;;;;5.00;3.27;;;9.40;99.90;;;;;;4994067;28;20981;-68
2021/03/29 00:49:24;;;;;;;3.97;3.57;;;9.40;99.90;;;;;;4986784;28;20540;-67
2021/03/29 00:51:51;;;;;;;6.67;3.40;;;9.40;99.90;;;;;;4984618;28;20172;-67
2021/03/29 00:54:17;;;;;;;5.90;3.30;;;9.30;99.90;;;;;;4991293;28;20431;-67
2021/03/29 00:56:44;;;;;;;5.77;3.23;;;9.30;99.90;;;;;;4988126;28;20438;-67
2021/03/29 00:59:10;;;;;;;5.50;2.60;;;9.30;99.90;;;;;;4989729;28;20458;-67
2021/03/29 01:01:43;;;;;;;6.40;3.70;;;9.20;99.90;;;;;;4982577;28;20430;-67
2021/03/29 01:04:09;;;;;;;5.47;2.70;;;9.10;99.90;;;;;;4993374;28;20445;-67
2021/03/29 01:06:40;;;;;;;5.10;3.23;;;9.10;99.90;;;;;;4992306;28;20451;-67
2021/03/29 01:09:18;;;;;;;5.00;2.70;;;9.10;99.90;;;;;;4987188;28;20538;-67
2021/03/29 01:11:58;;;;;;;4.50;2.80;;;9.10;99.90;;;;;;4992659;28;20789;-68
2021/03/29 01:14:34;;;;;;;3.20;2.90;;;9.10;99.90;;;;;;4993226;28;20430;-67
2021/03/29 01:17:05;;;;;;;7.53;3.00;;;9.10;99.90;;;;;;4984844;28;20437;-67
2021/03/29 01:19:37;;;;;;;6.73;3.63;;;9.10;99.90;;;;;;4991667;28;20884;-67
2021/03/29 01:22:06;;;;;;;4.93;2.90;;;9.00;99.90;;;;;;4989919;28;20950;-67
2021/03/29 01:24:50;;;;;;;4.37;3.23;;;9.00;99.90;;;;;;4993201;28;20434;-67
2021/03/29 01:27:31;;;;;;;4.20;2.73;;;9.10;99.90;;;;;;4992637;28;20551;-67
2021/03/29 01:29:57;;;;;;;3.77;3.40;;;9.00;99.90;;;;;;4977002;28;20451;-67
2021/03/29 01:32:24;;;;;;;6.93;3.17;;;9.00;99.90;;;;;;4986376;28;20482;-67
2021/03/29 01:34:51;;;;;;;7.43;3.70;;;9.00;99.90;;;;;;4990168;28;20965;-67
2021/03/29 01:37:17;;;;;;;11.10;3.20;;;8.90;99.90;;;;;;4990603;28;20493;-68
2021/03/29 01:39:44;;;;;;;5.40;3.10;;;8.90;99.90;;;;;;4991780;28;20858;-68
2021/03/29 01:42:12;;;;;;;5.97;3.57;;;8.80;99.90;;;;;;4987677;28;20431;-67
2021/03/29 01:44:39;;;;;;;9.80;3.53;;;8.70;99.90;;;;;;4992428;28;20525;-67
2021/03/29 01:47:07;;;;;;;3.40;2.60;;;8.70;99.90;;;;;;4973488;28;20562;-67
2021/03/29 01:49:33;;;;;;;4.73;3.40;;;8.60;99.90;;;;;;4988415;28;20454;-67
2021/03/29 01:52:00;;;;;;;4.17;3.30;;;8.60;99.90;;;;;;4987388;28;20435;-67
2021/03/29 01:54:26;;;;;;;4.37;3.27;;;8.60;99.90;;;;;;4989828;28;20518;-68
2021/03/29 01:56:52;;;;;;;5.20;3.30;;;8.50;99.90;;;;;;4991714;28;20815;-67
2021/03/29 01:59:17;;;;;;;5.87;3.17;;;8.40;99.90;;;;;;4991755;28;20457;-68
2021/03/29 02:01:43;;;;;;;8.30;2.70;;;8.40;99.90;;;;;;4973919;28;20184;-67
2021/03/29 02:04:09;;;;;;;5.70;3.30;;;8.40;99.90;;;;;;4988007;28;20218;-67
2021/03/29 02:06:36;;;;;;;4.23;2.73;;;8.30;99.90;;;;;;4991962;28;20250;-67
2021/03/29 02:09:08;;;;;;;3.83;2.57;;;8.30;99.90;;;;;;4977073;28;20694;-67
2021/03/29 02:11:35;;;;;;;5.27;3.23;;;8.20;99.90;;;;;;4992551;28;20446;-68
2021/03/29 02:14:02;;;;;;;3.33;3.03;;;8.20;99.90;;;;;;4992723;28;20442;-68
2021/03/29 02:16:29;;;;;;;5.40;3.60;;;8.10;99.90;;;;;;4988146;28;21143;-68
2021/03/29 02:19:00;;;;;;;5.13;3.40;;;8.10;99.90;;;;;;4980029;28;20501;-67
2021/03/29 02:21:32;;;;;;;5.60;3.30;;;8.10;99.90;;;;;;4992548;28;20430;-68
2021/03/29 02:23:59;;;;;;;5.00;2.97;;;8.10;99.90;;;;;;4992006;28;21142;-67
2021/03/29 02:26:26;;;;;;;3.27;2.67;;;8.10;99.90;;;;;;4983851;28;20466;-67
2021/03/29 02:28:52;;;;;;;4.40;2.73;;;8.10;99.90;;;;;;4991559;28;20473;-67
2021/03/29 02:31:19;;;;;;;3.37;3.00;;;8.00;99.90;;;;;;4989415;28;20426;-67
2021/03/29 02:33:47;;;;;;;4.00;3.40;;;8.00;99.90;;;;;;4991681;28;20643;-68
2021/03/29 02:36:13;;;;;;;5.37;3.10;;;8.00;99.90;;;;;;4991770;28;20438;-68
2021/03/29 02:38:38;;;;;;;3.73;3.27;;;8.00;99.90;;;;;;4990055;28;20438;-68
2021/03/29 02:41:04;;;;;;;4.43;2.50;;;7.90;99.90;;;;;;4991776;28;20187;-68
2021/03/29 02:43:31;;;;;;;6.87;3.07;;;7.90;99.90;;;;;;4991391;28;20670;-67
2021/03/29 02:46:01;;;;;;;3.30;2.40;;;7.90;99.90;;;;;;4989595;28;20236;-67
2021/03/29 02:48:29;;;;;;;3.43;2.70;;;8.00;99.90;;;;;;4979953;28;20424;-68
2021/03/29 02:50:57;;;;;;;3.20;2.73;;;7.90;99.90;;;;;;4991668;28;20438;-68
2021/03/29 02:53:31;;;;;;;5.20;2.40;;;7.90;99.90;;;;;;4990679;28;20458;-67
2021/03/29 02:56:01;;;;;;;3.80;2.93;;;7.90;99.90;;;;;;4986179;28;20435;-67
2021/03/29 02:58:29;;;;;;;6.20;3.43;;;7.90;99.90;;;;;;4983092;28;20431;-67
2021/03/29 03:00:56;;;;;;;4.37;3.30;;;7.90;99.90;;;;;;4990816;28;20439;-67
2021/03/29 03:03:22;;;;;;;4.70;2.53;;;7.90;99.90;;;;;;4991683;28;20430;-67
2021/03/29 03:05:50;;;;;;;3.47;2.93;;;7.80;99.90;;;;;;4989930;28;20460;-67
2021/03/29 03:08:17;;;;;;;3.57;2.77;;;7.70;99.90;;;;;;4991402;28;20211;-67
2021/03/29 03:10:44;;;;;;;4.67;3.10;;;7.60;99.90;;;;;;4989715;28;20462;-68
2021/03/29 03:13:10;;;;;;;6.07;2.67;;;7.60;99.90;;;;;;4983785;28;20445;-67
2021/03/29 03:15:37;;;;;;;8.80;5.50;;;7.60;99.90;;;;;;4982212;28;20432;-68
2021/03/29 03:18:06;;;;;;;3.90;2.67;;;7.50;99.90;;;;;;4984295;28;20510;-68
2021/03/29 03:20:34;;;;;;;8.70;3.47;;;7.50;99.90;;;;;;4990865;28;21039;-67
2021/03/29 03:23:03;;;;;;;2.93;2.40;;;7.50;99.90;;;;;;4987182;28;20469;-67
2021/03/29 03:25:34;;;;;;;3.03;2.70;;;7.50;99.90;;;;;;4984750;28;20463;-67
2021/03/29 03:28:02;;;;;;;2.53;2.33;;;7.50;99.90;;;;;;4973442;28;20463;-67
2021/03/29 03:30:30;;;;;;;2.83;2.63;;;7.40;99.90;;;;;;4988532;28;20455;-67
2021/03/29 03:32:57;;;;;;;5.90;2.73;;;7.50;99.90;;;;;;4989389;28;20964;-68
2021/03/29 03:35:25;;;;;;;4.10;2.60;;;7.40;99.90;;;;;;4980696;28;20433;-68
2021/03/29 03:38:13;;;;;;;4.10;2.77;;;7.40;99.90;;;;;;4978616;28;20438;-69
2021/03/29 03:40:44;;;;;;;4.30;2.97;;;7.40;99.90;;;;;;4979219;28;20888;-68
2021/03/29 03:43:13;;;;;;;3.60;2.43;;;7.40;99.90;;;;;;4991196;28;20474;-67
2021/03/29 03:45:45;;;;;;;4.50;2.50;;;7.20;99.90;;;;;;4985683;28;20444;-67
2021/03/29 03:48:16;;;;;;;5.93;2.93;;;7.30;99.90;;;;;;4987563;28;20431;-67
2021/03/29 03:50:46;;;;;;;10.40;3.00;;;7.30;99.90;;;;;;4987966;28;20846;-67
2021/03/29 03:53:14;;;;;;;3.30;2.53;;;7.30;99.90;;;;;;4982873;28;20434;-67
2021/03/29 03:55:40;;;;;;;3.13;2.40;;;7.30;99.90;;;;;;4978179;28;20423;-68
2021/03/29 03:58:06;;;;;;;3.70;2.30;;;7.20;99.90;;;;;;4987913;28;20422;-67
2021/03/29 04:00:31;;;;;;;4.13;2.67;;;7.20;99.90;;;;;;4987259;28;20455;-67
2021/03/29 04:02:57;;;;;;;3.20;2.70;;;7.10;99.90;;;;;;4962177;28;20175;-67
2021/03/29 04:05:23;;;;;;;4.00;3.10;;;7.10;99.90;;;;;;4988630;28;20167;-67
2021/03/29 04:07:52;;;;;;;3.73;3.37;;;6.90;99.90;;;;;;4988987;28;20211;-68
2021/03/29 04:10:24;;;;;;;3.13;2.83;;;6.90;99.90;;;;;;4990349;28;20202;-68
2021/03/29 04:12:53;;;;;;;2.90;2.50;;;6.90;99.90;;;;;;4988548;28;20435;-67
2021/03/29 04:15:20;;;;;;;5.77;3.47;;;6.90;99.90;;;;;;4976101;28;20439;-67
2021/03/29 04:17:45;;;;;;;5.33;3.67;;;6.80;99.90;;;;;;4993276;28;20819;-67
2021/03/29 04:20:12;;;;;;;5.30;3.80;;;6.90;99.90;;;;;;4980522;28;20462;-67
2021/03/29 04:22:38;;;;;;;4.27;2.73;;;6.90;99.90;;;;;;4987228;28;20186;-67
2021/03/29 04:25:06;;;;;;;5.80;3.13;;;6.90;99.90;;;;;;4994709;28;20957;-67
2021/03/29 04:27:32;;;;;;;5.03;3.50;;;6.80;99.90;;;;;;4994722;28;20870;-67
2021/03/29 04:29:58;;;;;;;3.87;3.07;;;6.70;99.90;;;;;;4987246;28;20453;-68
2021/03/29 04:32:24;;;;;;;3.10;2.80;;;6.80;99.90;;;;;;4983780;28;20430;-68
2021/03/29 04:34:50;;;;;;;6.10;3.50;;;6.70;99.90;;;;;;4993876;28;20858;-68
2021/03/29 04:37:15;;;;;;;4.43;2.93;;;6.80;99.90;;;;;;4983937;28;20603;-67
2021/03/29 04:39:41;;;;;;;3.50;3.20;;;6.90;99.90;;;;;;4993989;28;20202;-67
2021/03/29 04:42:07;;;;;;;4.70;3.10;;;7.00;99.90;;;;;;4993634;28;20694;-68
2021/03/29 04:44:32;;;;;;;3.73;2.93;;;7.10;99.90;;;;;;4984738;28;20188;-70
2021/03/29 04:46:58;;;;;;;4.17;2.97;;;7.10;99.90;;;;;;4988696;28;20211;-68
2021/03/29 04:49:23;;;;;;;5.20;3.07;;;7.10;99.90;;;;;;4985347;28;20286;-68
2021/03/29 04:51:49;;;;;;;4.73;3.30;;;7.10;99.90;;;;;;4988578;28;20274;-69
2021/03/29 04:54:14;;;;;;;6.40;4.77;;;7.10;99.90;;;;;;4993675;28;20182;-69
2021/03/29 04:56:40;;;;;;;5.40;3.13;;;7.10;99.90;;;;;;4994093;28;20184;-69
2021/03/29 04:59:05;;;;;;;5.20;3.23;;;7.20;99.90;;;;;;4989490;28;20199;-68
2021/03/29 05:01:31;;;;;;;4.40;2.93;;;7.30;99.90;;;;;;4991428;28;20212;-68
2021/03/29 05:03:56;;;;;;;4.83;3.30;;;7.30;99.90;;;;;;4984124;28;20266;-68
2021/03/29 05:06:22;;;;;;;8.37;3.77;;;7.30;99.90;;;;;;4985342;28;20755;-68
2021/03/29 05:08:48;;;;;;;5.07;3.00;;;7.40;99.90;;;;;;4993691;28;20689;-68
2021/03/29 05:11:13;;;;;;;4.20;3.00;;;7.40;99.90;;;;;;4993590;28;20179;-69
2021/03/29 05:13:39;;;;;;;4.63;2.70;;;7.40;99.90;;;;;;4993390;28;20188;-68
2021/03/29 05:16:05;;;;;;;6.43;3.83;;;7.50;99.90;;;;;;4993142;28;20184;-68
2021/03/29 05:18:30;;;;;;;4.40;3.20;;;7.50;99.90;;;;;;4993282;28;20186;-69
2021/03/29 05:20:56;;;;;;;4.63;3.20;;;7.60;99.90;;;;;;4992965;28;20445;-68
2021/03/29 05:23:22;;;;;;;4.77;3.17;;;7.60;99.90;;;;;;4993319;28;20184;-68
2021/03/29 05:25:48;;;;;;;5.03;2.70;;;7.70;99.90;;;;;;4976125;28;20277;-68
2021/03/29 05:28:14;;;;;;;4.23;3.50;;;7.80;99.90;;;;;;4991938;28;20546;-68
2021/03/29 05:30:40;;;;;;;2.97;2.77;;;7.80;99.90;;;;;;4993390;28;20223;-69
2021/03/29 05:33:06;;;;;;;8.70;3.67;;;7.80;99.90;;;;;;4993716;28;20434;-68
2021/03/29 05:35:32;;;;;;;7.13;3.70;;;7.90;99.90;;;;;;4975702;28;20180;-68
2021/03/29 05:37:57;;;;;;;10.87;3.83;;;7.90;99.90;;;;;;4993691;28;20179;-68
2021/03/29 05:40:23;;;;;;;3.30;2.90;;;8.00;99.90;;;;;;4987804;28;20986;-68
2021/03/29 05:42:49;;;;;;;4.70;3.40;;;8.10;99.90;;;;;;4983941;28;20180;-68
2021/03/29 05:45:16;;;;;;;5.87;3.67;;;8.20;99.90;;;;;;4990345;28;20950;-68
2021/03/29 05:47:42;;;;;;;7.50;4.27;;;8.20;99.90;;;;;;4993130;28;20524;-68
2021/03/29 05:50:10;;;;;;;3.77;3.47;;;8.20;99.90;;;;;;4991803;28;20458;-68
2021/03/29 05:52:36;;;;;;;8.10;4.20;;;8.20;99.90;;;;;;4983852;28;20437;-69
2021/03/29 05:55:04;;;;;;;8.00;3.83;;;8.30;99.90;;;;;;4992067;28;20431;-69
2021/03/29 05:57:40;;;;;;;10.17;3.67;;;8.50;99.90;;;;;;4973667;28;20489;-69
2021/03/29 06:00:31;;;;;;;5.70;3.93;;;8.50;99.90;;;;;;4989302;28;20450;-68
2021/03/29 06:03:17;;;;;;;7.53;4.30;;;8.50;99.90;;;;;;4990671;28;20449;-68
2021/03/29 06:05:42;;;;;;;5.80;4.40;;;8.60;99.90;;;;;;4986017;28;20427;-67
2021/03/29 06:08:08;;;;;;;4.53;4.13;;;8.70;99.90;;;;;;4983057;28;20496;-67
2021/03/29 06:10:36;;;;;;;10.40;5.03;;;8.80;99.90;;;;;;4992441;28;20196;-67
2021/03/29 06:13:17;;;;;;;8.50;4.97;;;8.90;99.90;;;;;;4992343;28;20183;-69
2021/03/29 06:15:45;;;;;;;8.80;5.40;;;9.00;99.90;;;;;;4992830;28;20437;-69
2021/03/29 06:18:17;;;;;;;8.20;4.83;;;9.00;99.90;;;;;;4983270;28;20432;-70
2021/03/29 06:20:59;;;;;;;9.97;4.73;;;9.10;99.90;;;;;;4986891;28;20462;-69
2021/03/29 06:23:25;;;;;;;7.50;5.50;;;9.30;99.90;;;;;;4991889;28;20442;-71
2021/03/29 06:25:51;;;;;;;13.90;9.77;;;9.40;99.90;;;;;;4984523;28;20464;-69
2021/03/29 06:28:26;;;;;;;6.80;5.10;;;9.40;99.90;;;;;;4984128;28;20470;-69
2021/03/29 06:30:52;;;;;;;7.97;4.97;;;9.60;99.90;;;;;;4987903;28;20190;-69
2021/03/29 06:33:18;;;;;;;6.40;4.60;;;9.70;99.90;;;;;;4973239;28;20591;-69
2021/03/29 06:35:55;;;;;;;6.40;4.93;;;9.80;99.90;;;;;;4964123;28;20175;-68
2021/03/29 06:38:23;;;;;;;10.20;5.50;;;10.20;99.90;;;;;;4989774;28;20438;-69
2021/03/29 06:40:52;;;;;;;14.40;5.70;;;10.40;99.90;;;;;;4986308;28;20980;-68
2021/03/29 06:43:17;;;;;;;8.40;5.37;;;10.50;99.90;;;;;;4984956;28;20521;-69
2021/03/29 06:45:43;;;;;;;8.27;6.10;;;10.60;99.90;;;;;;4986128;28;21029;-68
2021/03/29 06:48:24;;;;;;;8.83;5.40;;;10.60;99.90;;;;;;4979334;28;20189;-69
2021/03/29 06:51:19;;;;;;;13.73;5.57;;;10.80;99.90;;;;;;4976275;28;20236;-68
2021/03/29 06:53:44;;;;;;;7.40;4.97;;;10.90;99.90;;;;;;4979696;28;20470;-69
2021/03/29 06:56:20;;;;;;;8.50;5.60;;;11.00;99.90;;;;;;4982649;28;20558;-68
2021/03/29 06:58:46;;;;;;;8.17;6.00;;;10.90;99.90;;;;;;4989849;28;20237;-68
2021/03/29 07:01:19;;;;;;;9.17;5.30;;;11.00;99.90;;;;;;4987717;28;20426;-69
2021/03/29 07:03:47;;;;;;;11.60;5.77;;;11.10;99.90;;;;;;4987264;28;20473;-69
2021/03/29 07:06:21;;;;;;;10.50;6.30;;;11.20;99.90;;;;;;4988147;28;20469;-69
2021/03/29 07:08:47;;;;;;;10.40;5.23;;;11.30;99.90;;;;;;4982850;28;20434;-68
2021/03/29 07:11:15;;;;;;;10.53;5.73;;;11.40;99.90;;;;;;4986927;28;20789;-69
2021/03/29 07:13:42;;;;;;;7.77;5.20;;;11.50;99.90;;;;;;4986432;28;20434;-68
2021/03/29 07:16:09;;;;;;;7.93;5.80;;;11.60;99.90;;;;;;4985864;28;20438;-68
2021/03/29 07:18:36;;;;;;;9.93;7.50;;;11.80;99.90;;;;;;4987540;28;20434;-69
2021/03/29 07:21:07;;;;;;;8.60;5.43;;;12.00;99.90;;;;;;4985765;28;20443;-69
2021/03/29 07:23:33;;;;;;;9.03;6.93;;;12.10;99.90;;;;;;4987123;28;20438;-68
2021/03/29 07:25:59;;;;;;;7.73;6.07;;;12.40;99.90;;;;;;4987348;28;20525;-69
2021/03/29 07:28:29;;;;;;;7.03;5.50;;;12.50;99.90;;;;;;4985501;28;20435;-71
2021/03/29 07:30:59;;;;;;;8.37;5.27;;;12.80;99.90;;;;;;4979500;28;20439;-70
2021/03/29 07:33:45;;;;;;;10.00;4.57;;;13.20;99.90;;;;;;4981766;28;20439;-69
2021/03/29 07:36:11;;;;;;;6.03;5.27;;;13.50;98.50;;;;;;4987262;28;21166;-70
2021/03/29 07:38:56;;;;;;;8.77;6.50;;;13.70;98.00;;;;;;4985330;28;20462;-70
2021/03/29 07:41:21;;;;;;;9.43;5.77;;;13.90;97.90;;;;;;4986589;28;20262;-69
2021/03/29 07:44:09;;;;;;;7.03;4.27;;;14.00;96.90;;;;;;4977578;28;20891;-69
2021/03/29 07:46:39;;;;;;;8.37;4.90;;;14.00;95.50;;;;;;4986930;28;20241;-69
2021/03/29 07:49:24;;;;;;;7.50;4.27;;;14.00;94.80;;;;;;4987654;28;20517;-70
2021/03/29 07:52:26;;;;;;;8.60;4.20;;;14.00;93.90;;;;;;4978366;28;20436;-70
2021/03/29 07:54:53;;;;;;;6.00;4.10;;;14.10;94.10;;;;;;4983019;28;20486;-71
2021/03/29 07:57:59;;;;;;;5.83;4.30;;;14.40;93.20;;;;;;4986105;28;20785;-69
2021/03/29 08:00:25;;;;;;;4.40;3.97;;;14.70;90.90;;;;;;4983190;28;20455;-69
2021/03/29 08:02:54;;;;;;;5.43;3.93;;;14.90;89.30;;;;;;4966735;28;20785;-70
2021/03/29 08:05:45;;;;;;;6.30;4.33;;;15.00;87.20;;;;;;4983453;28;20552;-69
2021/03/29 08:08:26;;;;;;;3.83;3.43;;;15.20;85.70;;;;;;4981976;28;20466;-69
2021/03/29 08:11:02;;;;;;;6.97;5.80;;;15.50;83.80;;;;;;4986275;28;20446;-69
2021/03/29 08:13:50;;;;;;;9.57;5.10;;;15.90;81.80;;;;;;4986950;28;20530;-69
2021/03/29 08:16:25;;;;;;;4.57;4.00;;;16.10;78.40;;;;;;4976261;28;20862;-69
2021/03/29 08:19:25;;;;;;;4.53;3.60;;;16.30;77.40;;;;;;4986358;28;20474;-69
2021/03/29 08:21:59;;;;;;;5.90;4.33;;;16.40;75.40;;;;;;4981329;28;20781;-69
2021/03/29 08:24:31;;;;;;;8.70;8.00;;;16.30;73.90;;;;;;4986668;28;20516;-69
2021/03/29 08:27:02;;;;;;;9.87;5.53;;;16.50;74.00;;;;;;4987321;28;20477;-67
2021/03/29 08:29:29;;;;;;;22.73;15.87;;;16.20;73.10;;;;;;4986881;28;20604;-68
2021/03/29 08:32:10;;;;;;;7.93;5.20;;;16.10;74.50;;;;;;4984166;28;20501;-68
2021/03/29 08:34:42;;;;;;;4.13;3.47;;;16.00;73.50;;;;;;4983110;28;20472;-68
2021/03/29 08:37:09;;;;;;;8.00;4.27;;;16.00;73.30;;;;;;4986785;28;20434;-68
2021/03/29 08:39:39;;;;;;;10.90;6.10;;;16.30;73.60;;;;;;4986047;28;20485;-68
2021/03/29 08:42:05;;;;;;;6.07;3.40;;;16.60;72.70;;;;;;4987134;28;20435;-68
2021/03/29 08:44:32;;;;;;;5.73;3.70;;;16.80;69.30;;;;;;4975775;28;20438;-68
2021/03/29 08:46:58;;;;;;;8.07;5.53;;;16.90;68.10;;;;;;4982170;28;20540;-68
2021/03/29 08:49:25;;;;;;;9.37;6.50;;;17.40;67.10;;;;;;4984631;28;20537;-68
2021/03/29 08:51:51;;;;;;;5.97;4.10;;;18.10;67.30;;;;;;4987419;28;20470;-68
2021/03/29 08:54:17;;;;;;;9.33;7.50;;;18.40;63.40;;;;;;4984940;28;20525;-68
2021/03/29 08:56:50;;;;;;;10.90;4.47;;;18.50;62.70;;;;;;4985859;28;20438;-68
2021/03/29 08:59:16;;;;;;;7.23;4.50;;;19.20;60.10;;;;;;4986812;28;20667;-68
2021/03/29 09:01:42;;;;;;;6.00;2.90;;;19.50;58.30;;;;;;4990197;28;20449;-69
2021/03/29 09:04:10;;;;;;;4.07;2.60;;;19.30;57.10;;;;;;4987035;28;20446;-69
2021/03/29 09:06:36;;;;;;;6.77;2.80;;;19.50;55.80;;;;;;4989480;28;20238;-68
2021/03/29 09:09:16;;;;;;;4.23;2.73;;;19.50;55.10;;;;;;4988686;28;20505;-68
2021/03/29 09:11:43;;;;;;;5.67;2.80;;;20.00;54.00;;;;;;4990488;28;20179;-69
2021/03/29 09:14:09;;;;;;;6.77;3.37;;;21.00;53.20;;;;;;4984246;28;20469;-69
2021/03/29 09:16:36;;;;;;;4.17;2.40;;;21.50;51.80;;;;;;4990105;28;20450;-69
2021/03/29 09:19:13;;;;;;;2.47;2.27;;;22.00;49.60;;;;;;4989909;28;20465;-69
2021/03/29 09:21:39;;;;;;;4.07;2.30;;;22.20;49.30;;;;;;4972503;28;20760;-69
2021/03/29 09:24:16;;;;;;;4.43;2.83;;;22.00;47.20;;;;;;4989921;28;20528;-69
2021/03/29 09:26:42;;;;;;;4.70;3.07;;;22.20;45.90;;;;;;4989029;28;20544;-72
2021/03/29 09:29:31;;;;;;;3.70;2.60;;;22.50;45.00;;;;;;4988893;28;20585;-69
2021/03/29 09:32:02;;;;;;;2.93;2.73;;;23.60;44.20;;;;;;4980072;28;20202;-69
2021/03/29 09:34:28;;;;;;;7.23;3.10;;;23.90;42.20;;;;;;4986012;28;20442;-69
2021/03/29 09:36:53;;;;;;;6.13;2.90;;;23.70;41.70;;;;;;4985759;28;20811;-69
2021/03/29 09:39:19;;;;;;;7.13;2.70;;;24.20;42.00;;;;;;4986716;28;20778;-69
2021/03/29 09:41:52;;;;;;;3.43;2.67;;;24.60;41.20;;;;;;4989184;28;20183;-70
2021/03/29 09:44:29;;;;;;;4.73;2.83;;;25.40;39.50;;;;;;4984152;28;20753;-69
2021/03/29 09:46:57;;;;;;;6.60;2.00;;;25.10;38.50;;;;;;4988445;28;20458;-69
2021/03/29 09:49:23;;;;;;;2.60;2.27;;;25.10;38.00;;;;;;4988289;28;20455;-70
2021/03/29 09:51:52;;;;;;;3.00;2.13;;;25.50;37.10;;;;;;4989027;28;20899;-69
2021/03/29 09:54:29;;;;;;;5.23;3.33;;;25.40;37.60;;;;;;4989128;28;20539;-70
2021/03/29 09:56:56;;;;;;;5.37;2.47;;;26.40;36.70;;;;;;4989646;28;20469;-70
2021/03/29 09:59:30;;;;;;;4.07;2.57;;;27.20;35.20;;;;;;4988749;28;20486;-70
2021/03/29 10:01:58;;;;;;;4.50;2.63;;;27.60;33.90;;;;;;4971523;28;20982;-70
2021/03/29 10:04:23;;;;;;;3.23;2.67;;;28.60;34.20;;;;;;4978761;28;20434;-70
2021/03/29 10:06:53;;;;;;;2.50;2.20;;;29.40;32.90;;;;;;4988206;28;20445;-71
2021/03/29 10:09:36;;;;;;;3.40;2.10;;;29.80;31.90;;;;;;4988868;28;20218;-69
2021/03/29 10:12:04;;;;;;;4.60;2.40;;;29.90;30.90;;;;;;4989491;28;20958;-69
2021/03/29 10:14:33;;;;;;;9.07;8.17;;;30.10;29.70;;;;;;4986322;28;20439;-69
2021/03/29 10:17:00;;;;;;;3.23;2.43;;;29.80;29.90;;;;;;4987856;28;20473;-69
2021/03/29 10:19:34;;;;;;;4.50;2.63;;;29.40;29.60;;;;;;4989157;28;20482;-69
2021/03/29 10:22:11;;;;;;;5.80;2.77;;;29.10;29.70;;;;;;4981442;28;20438;-68
2021/03/29 10:25:05;;;;;;;3.30;3.00;;;30.00;29.80;;;;;;4989267;28;20430;-68
2021/03/29 10:27:41;;;;;;;4.37;2.97;;;31.30;29.60;;;;;;4986616;28;20443;-69
2021/03/29 10:30:08;;;;;;;2.83;2.50;;;30.40;28.80;;;;;;4989465;28;20549;-70
2021/03/29 10:32:34;;;;;;;4.63;2.23;;;31.10;28.70;;;;;;4980119;28;20446;-70
2021/03/29 10:35:00;;;;;;;2.83;2.50;;;31.90;28.30;;;;;;4979404;28;20448;-71
2021/03/29 10:37:28;;;;;;;3.93;2.53;;;30.80;29.60;;;;;;4985802;28;20229;-68
2021/03/29 10:39:56;;;;;;;4.10;3.70;;;31.70;27.80;;;;;;4974044;28;20461;-67
2021/03/29 10:42:24;;;;;;;4.23;2.93;;;30.60;27.30;;;;;;4987940;28;20431;-67
2021/03/29 10:44:54;;;;;;;6.23;2.80;;;30.90;28.60;;;;;;4994612;28;20446;-67
2021/03/29 10:47:24;;;;;;;4.30;2.90;;;31.00;26.80;;;;;;4988411;28;20443;-69
2021/03/29 10:49:50;;;;;;;4.37;2.67;;;29.20;28.90;;;;;;4981842;28;20470;-70
2021/03/29 10:52:16;;;;;;;2.67;2.43;;;30.00;29.10;;;;;;4986637;28;20454;-70
2021/03/29 10:54:42;;;;;;;3.40;2.83;;;31.10;27.60;;;;;;4977957;28;20446;-69
2021/03/29 10:57:08;;;;;;;5.60;2.90;;;30.30;28.00;;;;;;4983601;28;20215;-68
2021/03/29 10:59:35;;;;;;;3.70;2.50;;;32.00;27.80;;;;;;4988659;28;20454;-68
2021/03/29 11:02:01;;;;;;;6.90;2.93;;;34.30;26.50;;;;;;4971062;28;20434;-69
2021/03/29 11:04:27;;;;;;;3.10;2.80;;;35.00;26.00;;;;;;4980994;28;20445;-69
2021/03/29 11:06:53;;;;;;;5.40;3.37;;;35.30;25.70;;;;;;4979714;28;20688;-70
2021/03/29 11:09:19;;;;;;;2.97;2.70;;;36.40;25.70;;;;;;4974636;28;20462;-69
2021/03/29 11:11:44;;;;;;;2.80;2.30;;;37.00;24.80;;;;;;4988603;28;20898;-72
2021/03/29 11:14:10;;;;;;;3.50;2.90;;;36.70;24.00;;;;;;4969471;28;20214;-71
2021/03/29 11:16:35;;;;;;;2.87;2.63;;;36.50;23.80;;;;;;4988113;28;20269;-71
2021/03/29 11:19:01;;;;;;;2.80;2.50;;;34.80;24.40;;;;;;4987913;28;20756;-71
2021/03/29 11:21:27;;;;;;;3.23;2.43;;;33.40;24.40;;;;;;4987427;28;20184;-71
2021/03/29 11:23:52;;;;;;;3.20;2.03;;;33.00;25.10;;;;;;4988666;28;20266;-72
2021/03/29 11:26:18;;;;;;;4.07;2.50;;;33.60;25.00;;;;;;4981940;28;20961;-71
2021/03/29 11:28:44;;;;;;;6.00;2.97;;;34.70;24.30;;;;;;4987798;28;20266;-71
2021/03/29 11:31:09;;;;;;;4.47;2.90;;;34.30;24.60;;;;;;4988215;28;20274;-71
2021/03/29 11:33:35;;;;;;;3.87;2.33;;;33.70;25.30;;;;;;4987719;28;20925;-71
2021/03/29 11:36:01;;;;;;;2.43;2.20;;;33.90;24.60;;;;;;4986484;28;20211;-71
2021/03/29 11:38:26;;;;;;;5.33;2.57;;;35.40;25.00;;;;;;4986680;28;20892;-71
2021/03/29 11:40:52;;;;;;;3.57;2.80;;;36.80;24.30;;;;;;4987755;28;20211;-70
2021/03/29 11:43:18;;;;;;;2.50;2.30;;;37.40;24.20;;;;;;4985947;28;20430;-71
2021/03/29 11:45:43;;;;;;;4.73;2.53;;;37.00;24.40;;;;;;4987271;28;20184;-72
2021/03/29 11:48:09;;;;;;;2.40;2.20;;;35.10;24.00;;;;;;4988116;28;20249;-71
2021/03/29 11:50:35;;;;;;;2.33;2.13;;;36.70;24.20;;;;;;4987092;28;20277;-71
2021/03/29 11:53:01;;;;;;;3.10;2.30;;;37.40;23.40;;;;;;4982235;28;20206;-71
2021/03/29 11:55:27;;;;;;;4.73;3.03;;;35.60;24.00;;;;;;4987767;28;20187;-71
2021/03/29 11:57:55;;;;;;;2.60;2.40;;;34.70;24.00;;;;;;4978148;28;20462;-71
2021/03/29 12:00:30;;;;;;;2.10;1.90;;;36.00;24.00;;;;;;4984329;28;20203;-72
2021/03/29 12:03:04;;;;;;;2.40;2.20;;;37.00;23.40;;;;;;4987394;28;20820;-71
2021/03/29 12:05:33;;;;;;;3.30;2.87;;;35.80;23.00;;;;;;4984257;28;20433;-70
2021/03/29 12:08:26;;;;;;;2.50;2.30;;;37.30;24.00;;;;;;4987281;28;20435;-71
2021/03/29 12:13:33;;;;;;;3.80;2.83;;;36.90;23.30;;;;;;4983372;28;21209;-72
2021/03/29 12:15:59;;;;;;;5.70;3.00;;;36.90;23.90;;;;;;4984812;28;20829;-70
2021/03/29 12:18:58;;;;;;;9.20;3.10;;;38.20;23.80;;;;;;4986189;28;20942;-70
2021/03/29 12:21:23;;;;;;;3.60;3.17;;;39.10;23.60;;;;;;4985101;28;20453;-69
2021/03/29 12:23:52;;;;;;;2.90;2.70;;;37.00;23.00;;;;;;4985685;28;20558;-69
2021/03/29 12:26:22;;;;;;;2.60;2.40;;;36.90;23.10;;;;;;4987609;28;21128;-69
2021/03/29 12:28:51;;;;;;;2.90;2.57;;;37.90;23.20;;;;;;4987276;28;20434;-69
2021/03/29 12:31:17;;;;;;;3.00;2.23;;;39.40;23.20;;;;;;4986869;28;20435;-70
2021/03/29 12:33:42;;;;;;;5.03;2.53;;;38.50;22.80;;;;;;4987617;28;20461;-71
2021/03/29 12:36:10;;;;;;;3.13;2.50;;;37.10;23.30;;;;;;4976713;28;20946;-71
2021/03/29 12:38:41;;;;;;;2.97;2.63;;;35.80;23.90;;;;;;4978829;28;20184;-71
2021/03/29 12:41:09;;;;;;;3.67;2.60;;;37.50;23.70;;;;;;4984798;28;20458;-71
2021/03/29 12:43:41;;;;;;;4.70;3.00;;;36.90;23.00;;;;;;4972701;28;20442;-71
2021/03/29 12:46:07;;;;;;;3.63;2.60;;;36.30;23.40;;;;;;4976920;28;20433;-70
2021/03/29 12:48:36;;;;;;;3.03;2.83;;;36.50;23.90;;;;;;4991054;28;20437;-71
2021/03/29 12:51:04;;;;;;;3.20;2.33;;;38.20;23.00;;;;;;4990894;28;20801;-70
2021/03/29 12:53:30;;;;;;;5.93;2.80;;;38.40;23.00;;;;;;4989881;28;20461;-70
2021/03/29 12:55:56;;;;;;;2.77;2.57;;;38.70;23.00;;;;;;4985976;28;20435;-71
2021/03/29 12:58:22;;;;;;;3.57;2.50;;;39.50;23.00;;;;;;4990945;28;20462;-71
2021/03/29 13:00:49;;;;;;;4.53;3.40;;;41.00;22.90;;;;;;4982377;28;20462;-71
2021/03/29 13:03:16;;;;;;;3.97;2.67;;;39.20;22.80;;;;;;4982954;28;20475;-70